Time;durP1;ratioP1;P1;durP2;ratioP2;P2;SDS_P1;SDS_P2;PMS_P1;PMS_P2;Temp;Humidity;BMP_temperature;BMP_pressure;BME280_temperature;BME280_humidity;BME280_pressure;Samples;Min_cycle;Max_cycle;Signal;HPM_P1;HPM_P2
2021/05/23 00:02:05;;;;;;;6.30;3.78;;;;;;;;;;4990804;28;20071;-80
2021/05/23 00:04:31;;;;;;;10.13;4.28;;;;;;;;;;4976403;28;20053;-80
2021/05/23 00:06:58;;;;;;;8.38;4.20;;;;;;;;;;4975540;28;20046;-80
2021/05/23 00:09:25;;;;;;;8.48;4.00;;;;;;;;;;4976454;28;20030;-80
2021/05/23 00:11:51;;;;;;;6.20;3.38;;;;;;;;;;4976379;28;20383;-80
2021/05/23 00:14:20;;;;;;;7.65;3.40;;;;;;;;;;4975421;28;20034;-79
2021/05/23 00:16:47;;;;;;;12.00;3.60;;;;;;;;;;4976516;28;20407;-79
2021/05/23 00:19:14;;;;;;;8.35;3.10;;;;;;;;;;4975961;28;20110;-80
2021/05/23 00:21:40;;;;;;;8.32;3.28;;;;;;;;;;4975942;28;20134;-80
2021/05/23 00:24:09;;;;;;;4.95;2.83;;;;;;;;;;4975971;28;20530;-80
2021/05/23 00:26:36;;;;;;;6.65;3.28;;;;;;;;;;4976707;28;20069;-80
2021/05/23 00:29:02;;;;;;;5.80;3.08;;;;;;;;;;4975454;28;20387;-80
2021/05/23 00:31:28;;;;;;;4.63;2.88;;;;;;;;;;4974728;28;20061;-77
2021/05/23 00:33:54;;;;;;;4.40;2.53;;;;;;;;;;4974985;28;20023;-80
2021/05/23 00:36:21;;;;;;;6.20;2.42;;;;;;;;;;4975742;28;20039;-80
2021/05/23 00:38:47;;;;;;;5.60;3.05;;;;;;;;;;4976284;28;20146;-80
2021/05/23 00:41:13;;;;;;;6.50;3.60;;;;;;;;;;4991639;28;20043;-80
2021/05/23 00:43:39;;;;;;;6.28;3.28;;;;;;;;;;4989817;28;20030;-80
2021/05/23 00:46:06;;;;;;;10.13;3.53;;;;;;;;;;4990363;28;20030;-80
2021/05/23 00:48:32;;;;;;;7.55;3.55;;;;;;;;;;4976295;28;20027;-80
2021/05/23 00:50:59;;;;;;;6.50;3.25;;;;;;;;;;4975592;28;20502;-80
2021/05/23 00:53:25;;;;;;;7.07;3.72;;;;;;;;;;4975655;28;20023;-80
2021/05/23 00:55:51;;;;;;;7.15;4.00;;;;;;;;;;4990415;28;20031;-79
2021/05/23 00:58:19;;;;;;;10.95;4.05;;;;;;;;;;4974956;28;20027;-80
2021/05/23 01:00:46;;;;;;;9.15;4.00;;;;;;;;;;4990112;28;20038;-80
2021/05/23 01:03:28;;;;;;;6.72;3.58;;;;;;;;;;4990372;28;20057;-80
2021/05/23 01:05:54;;;;;;;7.75;3.67;;;;;;;;;;4990528;28;20171;-81
2021/05/23 01:08:22;;;;;;;6.90;3.45;;;;;;;;;;4975538;28;20055;-80
2021/05/23 01:10:52;;;;;;;6.70;3.70;;;;;;;;;;4994092;28;20035;-81
2021/05/23 01:13:37;;;;;;;8.20;3.70;;;;;;;;;;4979194;28;20038;-80
2021/05/23 01:16:15;;;;;;;7.07;2.97;;;;;;;;;;4994058;28;20030;-80
2021/05/23 01:18:48;;;;;;;7.40;4.05;;;;;;;;;;4979535;28;20087;-79
2021/05/23 01:21:14;;;;;;;;;;;;;;;;;;4994369;28;20038;-80
2021/05/23 01:23:44;;;;;;;5.22;3.03;;;;;;;;;;4978753;28;19906;-77
2021/05/23 01:26:13;;;;;;;6.70;3.38;;;;;;;;;;4993169;28;20069;-79
2021/05/23 01:28:48;;;;;;;8.15;3.17;;;;;;;;;;4993637;28;20019;-79
2021/05/23 01:31:16;;;;;;;8.60;3.85;;;;;;;;;;4993737;28;20038;-80
2021/05/23 01:33:43;;;;;;;7.13;3.47;;;;;;;;;;4993435;28;20392;-79
2021/05/23 01:36:10;;;;;;;6.15;3.67;;;;;;;;;;4979041;28;20030;-78
2021/05/23 01:38:36;;;;;;;6.85;3.60;;;;;;;;;;4978474;28;20027;-79
2021/05/23 01:41:05;;;;;;;5.57;3.30;;;;;;;;;;4979051;28;20124;-80
2021/05/23 01:43:32;;;;;;;7.18;3.40;;;;;;;;;;4978251;28;20019;-79
2021/05/23 01:45:58;;;;;;;4.78;2.80;;;;;;;;;;4993412;28;20035;-79
2021/05/23 01:48:25;;;;;;;7.22;3.53;;;;;;;;;;4978421;28;20031;-80
2021/05/23 01:50:51;;;;;;;7.40;3.58;;;;;;;;;;4978288;28;20073;-81
2021/05/23 01:53:18;;;;;;;6.40;3.58;;;;;;;;;;4978443;28;20047;-80
2021/05/23 01:55:44;;;;;;;6.32;3.05;;;;;;;;;;4978489;28;20038;-80
2021/05/23 01:58:11;;;;;;;6.13;2.83;;;;;;;;;;4978026;28;20053;-81
2021/05/23 02:00:37;;;;;;;6.80;3.63;;;;;;;;;;4977949;28;20039;-80
2021/05/23 02:03:05;;;;;;;6.40;3.90;;;;;;;;;;4978713;28;20030;-80
2021/05/23 02:05:33;;;;;;;5.72;3.30;;;;;;;;;;4993295;28;20038;-79
2021/05/23 02:07:59;;;;;;;5.80;3.70;;;;;;;;;;4977898;28;20503;-80
2021/05/23 02:10:25;;;;;;;6.22;3.53;;;;;;;;;;4993036;28;20031;-80
2021/05/23 02:12:52;;;;;;;7.03;3.15;;;;;;;;;;4977982;28;20019;-80
2021/05/23 02:15:19;;;;;;;7.50;3.35;;;;;;;;;;4977331;28;20365;-81
2021/05/23 02:17:46;;;;;;;6.78;3.65;;;;;;;;;;4978100;28;20027;-80
2021/05/23 02:20:17;;;;;;;6.05;3.35;;;;;;;;;;4976939;28;20061;-80
2021/05/23 02:22:45;;;;;;;6.93;3.33;;;;;;;;;;4992707;28;20035;-80
2021/05/23 02:25:12;;;;;;;7.00;3.67;;;;;;;;;;4992440;28;20030;-80
2021/05/23 02:27:45;;;;;;;6.53;3.58;;;;;;;;;;4977677;28;20500;-81
2021/05/23 02:30:13;;;;;;;6.80;3.78;;;;;;;;;;4992751;28;20082;-80
2021/05/23 02:32:39;;;;;;;6.25;3.17;;;;;;;;;;4992140;28;20058;-80
2021/05/23 02:35:06;;;;;;;7.00;3.90;;;;;;;;;;4977754;28;20031;-79
2021/05/23 02:37:33;;;;;;;6.95;3.85;;;;;;;;;;4977486;28;20038;-79
2021/05/23 02:40:01;;;;;;;7.35;3.55;;;;;;;;;;4978050;28;20542;-79
2021/05/23 02:42:28;;;;;;;7.75;3.83;;;;;;;;;;4992576;28;20023;-79
2021/05/23 02:44:54;;;;;;;7.00;3.15;;;;;;;;;;4992502;28;20029;-79
2021/05/23 02:47:21;;;;;;;9.57;3.78;;;;;;;;;;4976748;28;20026;-79
2021/05/23 02:49:47;;;;;;;8.90;4.18;;;;;;;;;;4992115;28;20027;-79
2021/05/23 02:52:13;;;;;;;9.18;3.88;;;;;;;;;;4992165;28;20031;-79
2021/05/23 02:54:39;;;;;;;6.18;3.35;;;;;;;;;;4991927;28;20022;-77
2021/05/23 02:57:06;;;;;;;6.07;3.72;;;;;;;;;;4992017;28;20094;-79
2021/05/23 02:59:32;;;;;;;9.57;4.47;;;;;;;;;;4992191;28;20030;-79
2021/05/23 03:01:58;;;;;;;6.30;3.47;;;;;;;;;;4976531;28;20039;-79
2021/05/23 03:04:25;;;;;;;10.43;4.35;;;;;;;;;;4976679;28;20065;-79
2021/05/23 03:06:51;;;;;;;6.95;3.60;;;;;;;;;;4976752;28;20069;-79
2021/05/23 03:09:18;;;;;;;7.95;3.97;;;;;;;;;;4977566;28;20042;-81
2021/05/23 03:11:44;;;;;;;8.63;3.45;;;;;;;;;;4976972;28;20054;-80
2021/05/23 03:14:11;;;;;;;8.10;3.85;;;;;;;;;;4976785;28;20153;-79
2021/05/23 03:16:37;;;;;;;8.60;4.20;;;;;;;;;;4976254;28;20034;-79
2021/05/23 03:19:04;;;;;;;7.13;3.85;;;;;;;;;;4976324;28;20134;-80
2021/05/23 03:21:31;;;;;;;6.80;3.53;;;;;;;;;;4976912;28;20034;-80
2021/05/23 03:23:57;;;;;;;7.22;3.75;;;;;;;;;;4976550;28;20026;-80
2021/05/23 03:26:23;;;;;;;7.38;3.50;;;;;;;;;;4976543;28;20082;-80
2021/05/23 03:28:50;;;;;;;6.15;3.10;;;;;;;;;;4977073;28;20062;-80
2021/05/23 03:31:16;;;;;;;9.32;3.00;;;;;;;;;;4976736;28;20102;-80
2021/05/23 03:33:42;;;;;;;6.13;3.10;;;;;;;;;;4975773;28;20188;-79
2021/05/23 03:36:09;;;;;;;5.65;2.90;;;;;;;;;;4976527;28;20030;-80
2021/05/23 03:38:35;;;;;;;6.55;3.65;;;;;;;;;;4976989;28;20468;-80
2021/05/23 03:41:01;;;;;;;6.95;3.47;;;;;;;;;;4976230;28;20062;-80
2021/05/23 03:43:28;;;;;;;6.72;3.10;;;;;;;;;;4976666;28;20408;-80
2021/05/23 03:45:54;;;;;;;9.00;3.28;;;;;;;;;;4976220;28;20373;-79
2021/05/23 03:48:21;;;;;;;5.45;2.83;;;;;;;;;;4975695;28;20054;-80
2021/05/23 03:50:47;;;;;;;5.95;3.22;;;;;;;;;;4976188;28;20034;-80
2021/05/23 03:53:14;;;;;;;6.40;3.30;;;;;;;;;;4976337;28;20027;-80
2021/05/23 03:55:40;;;;;;;5.85;2.95;;;;;;;;;;4976238;28;20061;-81
2021/05/23 03:58:07;;;;;;;7.40;3.20;;;;;;;;;;4991815;28;20031;-80
2021/05/23 04:00:35;;;;;;;8.00;3.20;;;;;;;;;;4976062;28;20035;-79
2021/05/23 04:03:02;;;;;;;8.05;3.50;;;;;;;;;;4976006;28;20030;-80
2021/05/23 04:05:28;;;;;;;6.53;3.33;;;;;;;;;;4977395;28;20034;-80
2021/05/23 04:07:55;;;;;;;4.78;2.83;;;;;;;;;;4976156;28;20047;-79
2021/05/23 04:10:25;;;;;;;6.20;3.25;;;;;;;;;;4974314;28;20027;-78
2021/05/23 04:12:52;;;;;;;13.40;3.42;;;;;;;;;;4975287;28;20031;-80
2021/05/23 04:15:19;;;;;;;5.88;3.15;;;;;;;;;;4975255;28;20030;-80
2021/05/23 04:17:46;;;;;;;7.18;3.33;;;;;;;;;;4974413;28;20027;-79
2021/05/23 04:20:13;;;;;;;9.07;3.30;;;;;;;;;;4990123;28;20431;-80
2021/05/23 04:22:39;;;;;;;6.07;2.80;;;;;;;;;;4990826;28;20034;-80
2021/05/23 04:25:08;;;;;;;6.82;2.83;;;;;;;;;;4990649;28;20019;-80
2021/05/23 04:27:35;;;;;;;6.38;2.75;;;;;;;;;;4990553;28;20031;-80
2021/05/23 04:30:04;;;;;;;6.45;2.80;;;;;;;;;;4990457;28;20023;-80
2021/05/23 04:32:31;;;;;;;7.13;3.13;;;;;;;;;;4990702;28;20125;-80
2021/05/23 04:34:57;;;;;;;5.82;3.15;;;;;;;;;;4975217;28;20031;-80
2021/05/23 04:37:24;;;;;;;6.53;3.50;;;;;;;;;;4990895;28;20027;-80
2021/05/23 04:39:50;;;;;;;5.15;2.85;;;;;;;;;;4974964;28;20027;-80
2021/05/23 04:42:16;;;;;;;5.45;2.70;;;;;;;;;;4975331;28;20038;-80
2021/05/23 04:44:43;;;;;;;4.78;2.65;;;;;;;;;;4978672;28;20360;-79
2021/05/23 04:47:09;;;;;;;5.05;3.20;;;;;;;;;;4979840;28;20039;-80
2021/05/23 04:49:38;;;;;;;4.80;2.67;;;;;;;;;;4979226;28;20022;-80
2021/05/23 04:52:08;;;;;;;6.47;2.53;;;;;;;;;;4994107;28;20023;-80
2021/05/23 04:54:35;;;;;;;4.93;2.75;;;;;;;;;;4994382;28;20087;-80
2021/05/23 04:57:01;;;;;;;5.75;3.00;;;;;;;;;;4979338;28;20498;-80
2021/05/23 04:59:27;;;;;;;5.03;2.60;;;;;;;;;;4979578;28;20035;-80
2021/05/23 05:01:54;;;;;;;4.53;2.40;;;;;;;;;;4978932;28;20045;-80
2021/05/23 05:04:20;;;;;;;5.03;2.65;;;;;;;;;;4978828;28;20019;-77
2021/05/23 05:06:46;;;;;;;5.57;2.83;;;;;;;;;;4977958;28;20585;-80
2021/05/23 05:09:12;;;;;;;6.25;3.28;;;;;;;;;;4993164;28;20026;-79
2021/05/23 05:11:38;;;;;;;5.43;2.97;;;;;;;;;;4978387;28;20031;-80
2021/05/23 05:14:05;;;;;;;5.40;3.35;;;;;;;;;;4993976;28;20480;-79
2021/05/23 05:16:31;;;;;;;5.30;2.85;;;;;;;;;;4993917;28;20435;-80
2021/05/23 05:18:57;;;;;;;4.38;2.55;;;;;;;;;;4993653;28;20062;-77
2021/05/23 05:21:23;;;;;;;5.60;2.85;;;;;;;;;;4981666;28;20039;-79
2021/05/23 05:23:49;;;;;;;5.47;2.80;;;;;;;;;;4973701;28;20114;-79
2021/05/23 05:26:16;;;;;;;5.32;2.97;;;;;;;;;;4973091;28;20480;-80
2021/05/23 05:28:42;;;;;;;4.50;2.53;;;;;;;;;;4973612;28;20480;-79
2021/05/23 05:31:10;;;;;;;5.07;3.10;;;;;;;;;;4973927;28;20031;-79
2021/05/23 05:33:36;;;;;;;7.40;2.63;;;;;;;;;;4974140;28;20039;-78
2021/05/23 05:36:03;;;;;;;6.65;3.10;;;;;;;;;;4973741;28;20027;-80
2021/05/23 05:38:29;;;;;;;7.75;2.85;;;;;;;;;;4974098;28;20035;-80
2021/05/23 05:40:55;;;;;;;4.15;2.45;;;;;;;;;;4959255;29;20023;-79
2021/05/23 05:43:21;;;;;;;4.82;2.72;;;;;;;;;;4974098;28;20118;-79
2021/05/23 05:45:48;;;;;;;6.53;3.05;;;;;;;;;;4973875;28;20026;-80
2021/05/23 05:48:14;;;;;;;6.10;2.58;;;;;;;;;;4959721;29;20031;-79
2021/05/23 05:50:40;;;;;;;9.18;2.88;;;;;;;;;;4958572;29;20023;-80
2021/05/23 05:53:07;;;;;;;4.30;2.30;;;;;;;;;;4959151;29;20066;-79
2021/05/23 05:55:33;;;;;;;7.50;3.00;;;;;;;;;;4958073;28;20027;-79
2021/05/23 05:57:59;;;;;;;5.03;2.75;;;;;;;;;;4959454;29;20070;-80
2021/05/23 06:00:25;;;;;;;4.22;2.35;;;;;;;;;;4973743;28;20066;-79
2021/05/23 06:02:51;;;;;;;5.32;2.65;;;;;;;;;;4973566;28;20533;-79
2021/05/23 06:05:17;;;;;;;4.10;2.30;;;;;;;;;;4958063;29;20027;-79
2021/05/23 06:07:44;;;;;;;5.13;2.60;;;;;;;;;;4973378;28;20058;-80
2021/05/23 06:10:12;;;;;;;6.03;2.35;;;;;;;;;;4973876;28;20106;-79
2021/05/23 06:12:38;;;;;;;4.97;2.33;;;;;;;;;;4973578;28;20031;-79
2021/05/23 06:15:05;;;;;;;7.35;2.75;;;;;;;;;;4958775;29;20102;-80
2021/05/23 06:17:31;;;;;;;4.70;2.60;;;;;;;;;;4972902;28;20020;-78
2021/05/23 06:19:57;;;;;;;7.72;2.45;;;;;;;;;;4957767;29;20023;-77
2021/05/23 06:22:24;;;;;;;4.68;2.42;;;;;;;;;;4958356;29;20066;-79
2021/05/23 06:24:50;;;;;;;4.57;2.08;;;;;;;;;;4973452;28;20031;-79
2021/05/23 06:27:16;;;;;;;4.40;2.40;;;;;;;;;;4958229;29;20028;-80
2021/05/23 06:29:45;;;;;;;9.00;2.80;;;;;;;;;;4958140;29;20046;-79
2021/05/23 06:32:11;;;;;;;6.88;2.92;;;;;;;;;;4973056;28;20027;-78
2021/05/23 06:34:37;;;;;;;4.50;2.38;;;;;;;;;;4957721;29;20032;-79
2021/05/23 06:37:03;;;;;;;4.95;2.50;;;;;;;;;;4973044;28;20444;-80
2021/05/23 06:39:29;;;;;;;4.38;2.53;;;;;;;;;;4958080;29;20034;-81
2021/05/23 06:41:55;;;;;;;5.53;2.78;;;;;;;;;;4972968;28;20082;-80
2021/05/23 06:44:22;;;;;;;8.07;2.95;;;;;;;;;;4972812;28;20047;-81
2021/05/23 06:46:48;;;;;;;6.13;2.88;;;;;;;;;;4958512;29;20447;-80
2021/05/23 06:49:14;;;;;;;5.25;2.58;;;;;;;;;;4972174;28;20049;-80
2021/05/23 06:51:41;;;;;;;6.55;3.20;;;;;;;;;;4972801;28;20472;-80
2021/05/23 06:54:07;;;;;;;5.40;2.70;;;;;;;;;;4958326;29;20094;-79
2021/05/23 06:56:33;;;;;;;5.13;2.55;;;;;;;;;;4957605;29;20047;-79
2021/05/23 06:58:59;;;;;;;6.68;2.72;;;;;;;;;;4972665;28;20023;-80
2021/05/23 07:01:25;;;;;;;9.63;3.65;;;;;;;;;;4972593;28;20443;-80
2021/05/23 07:03:52;;;;;;;6.93;2.97;;;;;;;;;;4972036;28;20472;-80
2021/05/23 07:06:18;;;;;;;6.78;2.67;;;;;;;;;;4957628;28;20032;-80
2021/05/23 07:08:45;;;;;;;5.28;2.42;;;;;;;;;;4957393;29;20408;-80
2021/05/23 07:11:11;;;;;;;5.00;2.72;;;;;;;;;;4957583;29;20035;-80
2021/05/23 07:13:37;;;;;;;5.65;2.88;;;;;;;;;;4972448;28;20027;-81
2021/05/23 07:16:04;;;;;;;5.00;2.80;;;;;;;;;;4972425;28;20059;-80
2021/05/23 07:18:30;;;;;;;4.80;2.78;;;;;;;;;;4956788;29;20082;-80
2021/05/23 07:20:59;;;;;;;6.03;3.00;;;;;;;;;;4972439;28;20050;-80
2021/05/23 07:23:25;;;;;;;7.30;2.88;;;;;;;;;;4972237;28;20027;-79
2021/05/23 07:25:52;;;;;;;5.82;2.80;;;;;;;;;;4971973;28;20035;-80
2021/05/23 07:28:18;;;;;;;5.88;3.00;;;;;;;;;;4972921;28;20078;-81
2021/05/23 07:30:44;;;;;;;5.00;2.35;;;;;;;;;;4971605;28;20366;-79
2021/05/23 07:33:14;;;;;;;5.00;2.58;;;;;;;;;;4972096;28;20054;-79
2021/05/23 07:35:40;;;;;;;5.30;3.03;;;;;;;;;;4971755;28;20475;-80
2021/05/23 07:38:06;;;;;;;6.45;2.88;;;;;;;;;;4957116;29;20031;-78
2021/05/23 07:40:32;;;;;;;4.88;2.83;;;;;;;;;;4971969;28;20476;-79
2021/05/23 07:42:58;;;;;;;5.65;3.08;;;;;;;;;;4971637;28;20079;-79
2021/05/23 07:45:25;;;;;;;6.18;3.33;;;;;;;;;;4971861;28;20027;-79
2021/05/23 07:47:51;;;;;;;6.15;2.83;;;;;;;;;;4971878;28;20031;-78
2021/05/23 07:50:18;;;;;;;6.13;2.83;;;;;;;;;;4971096;28;20019;-79
2021/05/23 07:52:44;;;;;;;4.43;2.60;;;;;;;;;;4971709;28;20027;-79
2021/05/23 07:55:11;;;;;;;4.43;2.55;;;;;;;;;;4956831;29;20023;-79
2021/05/23 07:57:37;;;;;;;7.68;2.85;;;;;;;;;;4956777;29;20027;-79
2021/05/23 08:00:04;;;;;;;6.38;2.72;;;;;;;;;;4972187;28;20079;-80
2021/05/23 08:02:31;;;;;;;8.23;3.20;;;;;;;;;;4970634;28;20034;-79
2021/05/23 08:04:57;;;;;;;6.43;3.58;;;;;;;;;;4970422;28;20027;-80
2021/05/23 08:07:23;;;;;;;7.95;3.13;;;;;;;;;;4970285;28;20047;-79
2021/05/23 08:09:50;;;;;;;5.30;3.13;;;;;;;;;;4971598;28;20030;-79
2021/05/23 08:12:18;;;;;;;5.07;2.80;;;;;;;;;;4971566;28;20444;-79
2021/05/23 08:14:44;;;;;;;6.75;3.30;;;;;;;;;;4971551;28;20528;-79
2021/05/23 08:17:10;;;;;;;6.53;3.00;;;;;;;;;;4971509;28;20027;-79
2021/05/23 08:19:36;;;;;;;6.07;3.05;;;;;;;;;;4970264;28;20027;-79
2021/05/23 08:22:03;;;;;;;7.60;2.80;;;;;;;;;;4956029;29;20039;-80
2021/05/23 08:24:31;;;;;;;5.65;2.83;;;;;;;;;;4956590;29;20023;-79
2021/05/23 08:26:57;;;;;;;6.25;2.88;;;;;;;;;;4956629;28;20031;-79
2021/05/23 08:29:24;;;;;;;4.07;2.45;;;;;;;;;;4971488;28;20098;-80
2021/05/23 08:31:50;;;;;;;8.38;2.90;;;;;;;;;;4956677;28;20023;-80
2021/05/23 08:34:17;;;;;;;6.65;4.28;;;;;;;;;;4956535;29;20109;-81
2021/05/23 08:36:43;;;;;;;4.70;2.60;;;;;;;;;;4955803;29;20067;-80
2021/05/23 08:39:09;;;;;;;5.22;2.92;;;;;;;;;;4956513;29;20130;-81
2021/05/23 08:41:35;;;;;;;4.35;2.53;;;;;;;;;;4971179;28;20497;-80
2021/05/23 08:44:02;;;;;;;8.75;3.35;;;;;;;;;;4971292;28;20118;-80
2021/05/23 08:46:32;;;;;;;6.65;3.05;;;;;;;;;;4971686;28;20091;-79
2021/05/23 08:49:00;;;;;;;5.53;3.35;;;;;;;;;;4956595;28;20032;-80
2021/05/23 08:51:27;;;;;;;4.25;2.80;;;;;;;;;;4970585;28;20138;-81
2021/05/23 08:53:53;;;;;;;4.45;2.42;;;;;;;;;;4970872;28;20034;-80
2021/05/23 08:56:20;;;;;;;6.53;2.40;;;;;;;;;;4971616;28;20027;-79
2021/05/23 08:58:46;;;;;;;4.35;2.47;;;;;;;;;;4970783;28;20051;-79
2021/05/23 09:01:23;;;;;;;6.15;2.70;;;;;;;;;;4970654;28;20511;-79
2021/05/23 09:03:56;;;;;;;6.47;2.47;;;;;;;;;;4970737;28;20031;-79
2021/05/23 09:06:41;;;;;;;8.73;3.45;;;;;;;;;;4973313;28;20031;-78
2021/05/23 09:09:08;;;;;;;9.38;3.05;;;;;;;;;;4974092;28;20130;-79
2021/05/23 09:11:35;;;;;;;5.63;3.10;;;;;;;;;;4956887;29;20038;-80
2021/05/23 09:14:03;;;;;;;5.22;2.95;;;;;;;;;;4955606;29;20058;-77
2021/05/23 09:16:40;;;;;;;5.30;2.90;;;;;;;;;;4955230;28;20503;-81
2021/05/23 09:19:06;;;;;;;5.32;2.72;;;;;;;;;;4956457;28;20512;-80
2021/05/23 09:21:33;;;;;;;6.32;2.97;;;;;;;;;;4956775;28;20039;-77
2021/05/23 09:24:17;;;;;;;7.03;2.90;;;;;;;;;;4957014;29;20028;-81
2021/05/23 09:26:44;;;;;;;5.00;2.40;;;;;;;;;;4970860;28;20082;-79
2021/05/23 09:29:13;;;;;;;5.70;2.55;;;;;;;;;;4955941;28;20027;-77
2021/05/23 09:31:40;;;;;;;3.72;2.10;;;;;;;;;;4959425;28;20031;-77
2021/05/23 09:34:06;;;;;;;5.45;2.47;;;;;;;;;;4959210;29;20094;-80
2021/05/23 09:36:43;;;;;;;5.78;2.10;;;;;;;;;;4958818;28;20384;-82
2021/05/23 09:39:09;;;;;;;4.78;2.45;;;;;;;;;;4959163;29;20074;-81
2021/05/23 09:41:36;;;;;;;7.95;2.33;;;;;;;;;;4959200;29;20090;-79
2021/05/23 09:44:21;;;;;;;5.85;2.58;;;;;;;;;;4959194;28;20037;-81
2021/05/23 09:46:51;;;;;;;4.90;1.90;;;;;;;;;;4959565;28;20361;-79
2021/05/23 09:49:18;;;;;;;3.15;1.55;;;;;;;;;;4973764;28;20127;-78
2021/05/23 09:52:10;;;;;;;4.43;1.65;;;;;;;;;;4959201;29;20035;-78
2021/05/23 09:54:44;;;;;;;3.78;1.55;;;;;;;;;;4956429;28;20387;-79
2021/05/23 09:57:14;;;;;;;3.47;1.80;;;;;;;;;;4958926;28;20055;-80
2021/05/23 09:59:40;;;;;;;3.72;1.70;;;;;;;;;;4959325;29;20052;-80
2021/05/23 10:02:07;;;;;;;3.60;1.80;;;;;;;;;;4959117;29;20399;-79
2021/05/23 10:04:34;;;;;;;3.75;1.65;;;;;;;;;;4959028;29;20388;-80
2021/05/23 10:07:02;;;;;;;6.47;1.77;;;;;;;;;;4958125;28;20039;-79
2021/05/23 10:09:28;;;;;;;3.20;1.58;;;;;;;;;;4958492;29;20039;-81
2021/05/23 10:11:55;;;;;;;2.53;0.95;;;;;;;;;;4973687;28;20026;-81
2021/05/23 10:14:21;;;;;;;2.45;1.25;;;;;;;;;;4958929;29;20035;-81
2021/05/23 10:16:51;;;;;;;2.25;1.08;;;;;;;;;;4969038;28;20033;-82
2021/05/23 10:19:28;;;;;;;4.32;1.38;;;;;;;;;;4977409;28;20365;-79
2021/05/23 10:21:59;;;;;;;3.05;1.30;;;;;;;;;;4977795;28;20043;-78
2021/05/23 10:24:34;;;;;;;1.92;1.13;;;;;;;;;;4978224;28;20050;-78
2021/05/23 10:27:23;;;;;;;3.53;1.20;;;;;;;;;;4977724;28;20030;-79
2021/05/23 10:29:53;;;;;;;5.78;1.50;;;;;;;;;;4982309;28;20030;-78
2021/05/23 10:32:24;;;;;;;5.05;1.77;;;;;;;;;;4977716;28;20472;-78
2021/05/23 10:34:52;;;;;;;3.05;1.42;;;;;;;;;;4978941;28;20035;-79
2021/05/23 10:37:19;;;;;;;4.07;1.48;;;;;;;;;;4994484;28;20046;-81
2021/05/23 10:39:57;;;;;;;2.25;0.90;;;;;;;;;;4979008;28;20031;-78
2021/05/23 10:42:28;;;;;;;2.33;0.90;;;;;;;;;;4992677;28;20045;-79
2021/05/23 10:44:57;;;;;;;2.42;0.82;;;;;;;;;;4979431;28;20027;-77
2021/05/23 10:47:34;;;;;;;2.58;0.90;;;;;;;;;;4992517;28;20099;-80
2021/05/23 10:50:09;;;;;;;1.77;0.63;;;;;;;;;;4978614;28;20059;-82
2021/05/23 10:52:36;;;;;;;1.77;0.80;;;;;;;;;;4993067;28;20030;-81
2021/05/23 10:55:23;;;;;;;2.75;0.75;;;;;;;;;;4991985;28;20049;-80
2021/05/23 10:57:53;;;;;;;4.90;0.60;;;;;;;;;;4979319;28;20027;-78
2021/05/23 11:00:19;;;;;;;1.85;0.40;;;;;;;;;;4977583;28;20034;-80
2021/05/23 11:02:45;;;;;;;3.80;0.70;;;;;;;;;;4991774;28;20387;-79
2021/05/23 11:05:20;;;;;;;2.00;0.52;;;;;;;;;;4992186;28;20142;-80
2021/05/23 11:07:57;;;;;;;1.05;0.52;;;;;;;;;;4977815;28;20054;-79
2021/05/23 11:10:32;;;;;;;4.47;0.65;;;;;;;;;;4977071;28;20038;-79
2021/05/23 11:12:59;;;;;;;1.60;0.60;;;;;;;;;;4992461;28;20039;-80
2021/05/23 11:15:26;;;;;;;2.25;1.10;;;;;;;;;;4993724;28;20460;-79
2021/05/23 11:17:54;;;;;;;2.35;0.70;;;;;;;;;;4992487;28;20027;-79
2021/05/23 11:20:21;;;;;;;2.33;0.65;;;;;;;;;;4978176;28;20027;-78
2021/05/23 11:23:07;;;;;;;2.85;0.63;;;;;;;;;;4978255;28;20050;-81
2021/05/23 11:25:33;;;;;;;1.00;0.45;;;;;;;;;;4992261;28;20031;-79
2021/05/23 11:28:01;;;;;;;1.05;0.35;;;;;;;;;;4992783;28;20031;-79
2021/05/23 11:30:28;;;;;;;4.80;0.80;;;;;;;;;;4992133;28;20027;-79
2021/05/23 11:32:59;;;;;;;3.45;0.75;;;;;;;;;;4976840;28;20109;-80
2021/05/23 11:35:25;;;;;;;4.63;0.75;;;;;;;;;;4990988;28;20027;-79
2021/05/23 11:37:55;;;;;;;2.05;0.85;;;;;;;;;;4976373;28;20085;-79
2021/05/23 11:40:22;;;;;;;3.30;1.30;;;;;;;;;;4976772;28;20027;-79
2021/05/23 11:42:49;;;;;;;3.05;1.05;;;;;;;;;;4991250;28;20471;-80
2021/05/23 11:45:25;;;;;;;5.47;0.93;;;;;;;;;;4991004;28;20027;-79
2021/05/23 11:47:52;;;;;;;1.55;0.70;;;;;;;;;;4991415;28;20447;-81
2021/05/23 11:50:29;;;;;;;5.20;0.90;;;;;;;;;;4990645;28;20033;-79
2021/05/23 11:52:57;;;;;;;1.50;0.70;;;;;;;;;;4990632;28;20034;-81
2021/05/23 11:55:27;;;;;;;1.60;0.70;;;;;;;;;;4976193;28;20480;-80
2021/05/23 11:58:12;;;;;;;0.85;0.47;;;;;;;;;;4991114;28;20035;-80
2021/05/23 12:00:38;;;;;;;1.15;0.35;;;;;;;;;;4991044;28;20039;-79
2021/05/23 12:03:05;;;;;;;1.77;0.60;;;;;;;;;;4990913;28;20069;-79
2021/05/23 12:05:52;;;;;;;1.48;0.57;;;;;;;;;;4990948;28;20553;-81
2021/05/23 12:08:18;;;;;;;1.00;0.40;;;;;;;;;;4975797;28;20051;-81
2021/05/23 12:10:44;;;;;;;1.20;0.60;;;;;;;;;;4990345;28;20484;-81
2021/05/23 12:13:11;;;;;;;1.40;0.52;;;;;;;;;;4976568;28;20027;-79
2021/05/23 12:15:37;;;;;;;0.90;0.40;;;;;;;;;;4990620;28;20467;-79
2021/05/23 12:18:03;;;;;;;1.90;0.63;;;;;;;;;;4991154;28;20114;-79
2021/05/23 12:20:29;;;;;;;2.42;0.57;;;;;;;;;;4990516;28;20030;-84
2021/05/23 12:22:59;;;;;;;1.33;0.50;;;;;;;;;;4975387;28;20051;-86
2021/05/23 12:25:25;;;;;;;3.58;0.85;;;;;;;;;;4990474;28;20077;-84
2021/05/23 12:27:53;;;;;;;1.52;0.60;;;;;;;;;;4990922;28;20038;-84
2021/05/23 12:30:26;;;;;;;3.30;0.60;;;;;;;;;;4991011;28;20038;-83
2021/05/23 12:32:55;;;;;;;1.30;0.65;;;;;;;;;;4990167;28;20027;-84
2021/05/23 12:35:24;;;;;;;1.45;0.50;;;;;;;;;;4976465;28;20055;-84
2021/05/23 12:37:52;;;;;;;3.47;0.73;;;;;;;;;;4976286;28;20027;-84
2021/05/23 12:40:20;;;;;;;1.00;0.50;;;;;;;;;;4975658;28;20037;-85
2021/05/23 12:42:46;;;;;;;2.35;0.60;;;;;;;;;;4976205;28;20092;-84
2021/05/23 12:45:13;;;;;;;1.35;0.57;;;;;;;;;;4990560;28;20015;-86
2021/05/23 12:47:49;;;;;;;2.38;0.57;;;;;;;;;;4990586;28;20031;-84
2021/05/23 12:50:27;;;;;;;1.67;0.65;;;;;;;;;;4990628;28;20038;-86
2021/05/23 12:52:53;;;;;;;1.35;0.55;;;;;;;;;;4990737;28;20042;-85
2021/05/23 12:55:20;;;;;;;18.38;5.93;;;;;;;;;;4974744;28;20019;-85
2021/05/23 12:57:50;;;;;;;6.10;2.30;;;;;;;;;;4975711;28;20107;-85
2021/05/23 13:00:16;;;;;;;13.23;5.25;;;;;;;;;;4990456;28;20045;-85
2021/05/23 13:02:43;;;;;;;14.32;5.57;;;;;;;;;;4976184;28;20058;-85
2021/05/23 13:05:09;;;;;;;2.63;1.00;;;;;;;;;;4977330;28;20050;-82
2021/05/23 13:07:38;;;;;;;3.40;0.80;;;;;;;;;;4978701;28;20051;-82
2021/05/23 13:10:12;;;;;;;1.52;0.73;;;;;;;;;;4993655;28;20034;-82
2021/05/23 13:12:38;;;;;;;1.95;0.93;;;;;;;;;;4978640;28;20027;-81
2021/05/23 13:15:06;;;;;;;1.55;0.50;;;;;;;;;;4979517;28;20031;-82
2021/05/23 13:17:42;;;;;;;1.50;0.50;;;;;;;;;;4994330;28;20543;-82
2021/05/23 13:20:09;;;;;;;1.92;0.50;;;;;;;;;;4994308;28;20062;-82
2021/05/23 13:22:36;;;;;;;1.15;0.32;;;;;;;;;;4994128;28;20045;-82
2021/05/23 13:25:04;;;;;;;0.63;0.20;;;;;;;;;;4978731;28;20027;-81
2021/05/23 13:27:31;;;;;;;1.35;0.57;;;;;;;;;;4978907;28;20073;-81
2021/05/23 13:29:59;;;;;;;1.40;0.70;;;;;;;;;;4993239;28;20109;-81
2021/05/23 13:32:25;;;;;;;1.08;0.30;;;;;;;;;;4978675;28;20130;-80
2021/05/23 13:34:51;;;;;;;0.55;0.20;;;;;;;;;;4979481;28;20068;-81
2021/05/23 13:37:17;;;;;;;0.43;0.20;;;;;;;;;;4978933;28;20050;-80
2021/05/23 13:39:44;;;;;;;2.65;1.40;;;;;;;;;;4978987;28;20030;-80
2021/05/23 13:42:10;;;;;;;0.82;0.47;;;;;;;;;;4978167;28;20395;-79
2021/05/23 13:44:36;;;;;;;1.88;0.90;;;;;;;;;;4992453;28;20114;-81
2021/05/23 13:47:02;;;;;;;0.73;0.30;;;;;;;;;;4977981;28;20077;-79
2021/05/23 13:49:29;;;;;;;0.60;0.30;;;;;;;;;;4977986;28;20030;-80
2021/05/23 13:51:56;;;;;;;0.82;0.40;;;;;;;;;;4993131;28;20022;-84
2021/05/23 13:54:22;;;;;;;0.80;0.30;;;;;;;;;;4978162;28;20027;-80
2021/05/23 13:56:48;;;;;;;1.70;0.30;;;;;;;;;;4993100;28;20050;-81
2021/05/23 13:59:15;;;;;;;1.02;0.20;;;;;;;;;;4992118;28;20023;-81
2021/05/23 14:01:47;;;;;;;0.22;0.20;;;;;;;;;;4978454;28;20062;-80
2021/05/23 14:04:17;;;;;;;0.93;0.32;;;;;;;;;;4978755;28;20026;-81
2021/05/23 14:06:44;;;;;;;1.13;0.28;;;;;;;;;;4977825;28;20435;-79
2021/05/23 14:09:10;;;;;;;0.45;0.20;;;;;;;;;;4977900;28;20038;-80
2021/05/23 14:11:37;;;;;;;1.55;0.20;;;;;;;;;;4992893;28;20014;-81
2021/05/23 14:14:04;;;;;;;1.40;0.50;;;;;;;;;;4993177;28;20029;-79
2021/05/23 14:16:30;;;;;;;2.00;0.30;;;;;;;;;;4976014;28;20067;-79
2021/05/23 14:18:57;;;;;;;0.52;0.20;;;;;;;;;;4992043;28;20140;-82
2021/05/23 14:21:23;;;;;;;0.80;0.30;;;;;;;;;;4991998;28;20045;-82
2021/05/23 14:23:49;;;;;;;0.85;0.20;;;;;;;;;;4992677;28;20510;-79
2021/05/23 14:26:16;;;;;;;1.35;0.22;;;;;;;;;;4978165;28;20027;-79
2021/05/23 14:28:42;;;;;;;1.10;0.30;;;;;;;;;;4977906;28;20023;-79
2021/05/23 14:31:09;;;;;;;1.15;0.30;;;;;;;;;;4977155;28;20405;-83
2021/05/23 14:33:36;;;;;;;1.02;0.20;;;;;;;;;;4992457;28;20062;-82
2021/05/23 14:36:02;;;;;;;0.40;0.20;;;;;;;;;;4977684;28;20031;-79
2021/05/23 14:38:30;;;;;;;0.68;0.20;;;;;;;;;;4977950;28;20081;-80
2021/05/23 14:40:56;;;;;;;0.57;0.30;;;;;;;;;;4977288;28;20078;-84
2021/05/23 14:43:27;;;;;;;0.55;0.20;;;;;;;;;;4992162;28;20074;-82
2021/05/23 14:45:54;;;;;;;2.03;0.28;;;;;;;;;;4991910;28;20088;-79
2021/05/23 14:48:20;;;;;;;0.98;0.30;;;;;;;;;;4977087;28;20114;-82